createdAt,value
2019-06-07T00:02:06.415Z,52.21
2019-06-07T00:04:38.483Z,52.04
2019-06-07T00:07:12.581Z,51.47
2019-06-07T00:09:44.459Z,52.30
2019-06-07T00:12:17.604Z,51.88
2019-06-07T00:14:50.239Z,51.88
2019-06-07T00:17:22.676Z,51.78
2019-06-07T00:19:54.685Z,52.16
2019-06-07T00:22:33.114Z,53.14
2019-06-07T00:25:00.884Z,53.43
2019-06-07T00:27:32.940Z,53.55
2019-06-07T00:30:32.765Z,53.56
2019-06-07T00:32:40.765Z,54.06
2019-06-07T00:35:15.450Z,54.00
2019-06-07T00:37:46.642Z,54.12
2019-06-07T00:40:29.977Z,54.31
2019-06-07T00:42:52.416Z,54.72
2019-06-07T00:45:24.897Z,54.79
2019-06-07T00:47:56.989Z,55.08
2019-06-07T00:50:29.233Z,55.49
2019-06-07T00:53:21.625Z,55.82
2019-06-07T00:55:35.566Z,56.37
2019-06-07T00:58:07.587Z,56.77
2019-06-07T01:00:39.545Z,56.82
2019-06-07T01:03:12.712Z,57.05
2019-06-07T01:05:45.527Z,56.85
2019-06-07T01:08:21.516Z,56.86
2019-06-07T01:10:53.935Z,57.30
2019-06-07T01:13:26.970Z,57.22
2019-06-07T01:15:59.025Z,57.05
2019-06-07T01:18:39.049Z,57.17
2019-06-07T01:21:05.207Z,57.46
2019-06-07T01:26:11.028Z,57.74
2019-06-07T01:28:43.328Z,57.81
2019-06-07T01:31:17.715Z,57.88
2019-06-07T01:33:51.156Z,57.79
2019-06-07T01:36:25.243Z,57.89
2019-06-07T01:38:56.756Z,58.31
2019-06-07T01:41:30.677Z,58.44
2019-06-07T01:44:02.633Z,58.48
2019-06-07T01:46:35.004Z,58.36
2019-06-07T01:49:07.235Z,58.56
2019-06-07T01:51:39.441Z,58.89
2019-06-07T01:54:49.664Z,58.59
2019-06-07T01:56:46.861Z,58.03
2019-06-07T01:59:21.974Z,57.53
2019-06-07T02:01:52.540Z,57.53
2019-06-07T02:04:27.343Z,57.55
2019-06-07T02:06:58.059Z,57.22
2019-06-07T02:09:32.018Z,57.04
2019-06-07T02:12:24.771Z,56.52
2019-06-07T02:14:37.587Z,56.60
2019-06-07T02:17:09.860Z,56.18
2019-06-07T02:19:41.822Z,56.25
2019-06-07T02:22:14.229Z,56.10
2019-06-07T02:24:46.682Z,56.36
2019-06-07T02:27:20.458Z,56.37
2019-06-07T02:29:52.663Z,56.48
2019-06-07T02:32:29.818Z,55.99
2019-06-07T02:34:59.051Z,56.13
2019-06-07T02:37:34.109Z,55.82
2019-06-07T02:40:08.018Z,55.13
2019-06-07T02:42:42.595Z,55.27
2019-06-07T02:45:13.681Z,55.43
2019-06-07T02:47:47.197Z,54.88
2019-06-07T02:50:19.303Z,54.55
2019-06-07T02:52:51.136Z,55.21
2019-06-07T02:55:27.382Z,55.65
2019-06-07T02:57:56.273Z,55.09
2019-06-07T03:01:08.959Z,54.67
2019-06-07T03:03:22.700Z,54.25
2019-06-07T03:05:54.704Z,53.17
2019-06-07T03:08:28.259Z,53.25
2019-06-07T03:11:00.078Z,52.34
2019-06-07T03:13:37.746Z,51.19
2019-06-07T03:16:12.399Z,51.15
2019-06-07T03:18:58.289Z,50.31
2019-06-07T03:21:33.718Z,50.34
2019-06-07T03:24:04.772Z,50.59
2019-06-07T03:27:30.352Z,50.79
2019-06-07T03:29:10.051Z,50.05
2019-06-07T03:31:47.778Z,50.65
2019-06-07T03:34:15.933Z,50.14
2019-06-07T03:36:48.205Z,49.53
2019-06-07T03:39:20.272Z,49.65
2019-06-07T03:42:05.812Z,49.91
2019-06-07T03:44:28.640Z,49.83
2019-06-07T03:46:59.858Z,49.70
2019-06-07T03:49:37.561Z,48.92
2019-06-07T03:52:05.424Z,49.19
2019-06-07T03:54:39.779Z,48.84
2019-06-07T03:57:11.206Z,48.95
2019-06-07T03:59:43.581Z,49.30
2019-06-07T04:02:15.951Z,48.69
2019-06-07T04:04:47.915Z,48.68
2019-06-07T04:07:20.089Z,47.77
2019-06-07T04:09:52.465Z,47.18
2019-06-07T04:12:24.429Z,47.84
2019-06-07T04:14:56.503Z,47.97
2019-06-07T04:17:32.059Z,47.62
2019-06-07T04:20:03.044Z,47.45
2019-06-07T04:22:37.575Z,47.35
2019-06-07T04:25:09.455Z,47.28
2019-06-07T04:27:41.563Z,46.95
2019-06-07T04:30:13.517Z,47.01
2019-06-07T04:32:45.375Z,47.20
2019-06-07T04:35:17.545Z,47.01
2019-06-07T04:37:49.413Z,46.02
2019-06-07T04:40:21.574Z,46.27
2019-06-07T04:42:53.640Z,46.44
2019-06-07T04:45:40.266Z,46.90
2019-06-07T04:47:59.853Z,46.20
2019-06-07T04:50:35.356Z,46.37
2019-06-07T04:53:07.138Z,46.73
2019-06-07T04:55:41.608Z,46.32
2019-06-07T04:58:13.013Z,45.61
2019-06-07T05:00:52.768Z,45.19
2019-06-07T05:03:19.096Z,45.11
2019-06-07T05:05:51.366Z,45.55
2019-06-07T05:08:28.480Z,45.54
2019-06-07T05:10:57.653Z,45.08
2019-06-07T05:13:31.507Z,45.25
2019-06-07T05:16:03.530Z,45.10
2019-06-07T05:18:39.700Z,44.96
2019-06-07T05:21:09.513Z,44.96
2019-06-07T05:24:05.603Z,44.96
2019-06-07T05:26:15.081Z,45.14
2019-06-07T05:28:47.053Z,44.21
2019-06-07T05:31:19.218Z,44.26
2019-06-07T05:33:51.189Z,44.41
2019-06-07T05:36:23.560Z,44.01
2019-06-07T05:38:55.627Z,43.35
2019-06-07T05:41:27.698Z,44.33
2019-06-07T05:44:12.233Z,44.66
2019-06-07T05:46:38.633Z,44.40
2019-06-07T05:49:08.307Z,43.75
2019-06-07T05:51:44.395Z,43.77
2019-06-07T05:54:13.983Z,43.99
2019-06-07T05:56:46.144Z,44.33
2019-06-07T05:59:18.325Z,43.54
2019-06-07T06:02:01.946Z,43.46
2019-06-07T06:04:23.781Z,42.32
2019-06-07T06:06:55.745Z,42.88
2019-06-07T06:09:28.121Z,43.39
2019-06-07T06:12:02.426Z,43.75
2019-06-07T06:14:35.379Z,43.96
2019-06-07T06:17:07.086Z,43.90
2019-06-07T06:19:40.665Z,44.24
2019-06-07T06:22:13.161Z,43.87
2019-06-07T06:25:17.692Z,43.36
2019-06-07T06:28:02.703Z,43.33
2019-06-07T06:29:52.576Z,43.40
2019-06-07T06:32:41.600Z,42.18
2019-06-07T06:34:58.314Z,43.39
2019-06-07T06:37:32.977Z,43.14
2019-06-07T06:40:06.273Z,42.88
2019-06-07T06:42:39.635Z,42.55
2019-06-07T06:45:11.816Z,43.24
2019-06-07T06:47:47.199Z,43.36
2019-06-07T06:50:17.273Z,42.19
2019-06-07T06:52:54.220Z,41.12
2019-06-07T06:55:23.144Z,40.92
2019-06-07T06:57:55.524Z,40.06
2019-06-07T07:00:50.346Z,39.56
2019-06-07T07:03:56.426Z,38.82
2019-06-07T07:05:53.316Z,38.88
2019-06-07T07:08:23.554Z,38.69
2019-06-07T07:10:55.855Z,38.91
2019-06-07T07:13:28.093Z,38.97
2019-06-07T07:16:00.362Z,38.06
2019-06-07T07:18:33.008Z,38.69
2019-06-07T07:21:05.723Z,38.45
2019-06-07T07:23:38.230Z,37.39
2019-06-07T07:26:10.597Z,38.56
2019-06-07T07:28:45.391Z,37.85
2019-06-07T07:31:17.970Z,36.77
2019-06-07T07:36:38.926Z,34.85
2019-06-07T07:39:04.502Z,35.55
2019-06-07T07:41:30.546Z,36.36
2019-06-07T07:44:07.145Z,36.50
2019-06-07T07:46:36.417Z,36.64
2019-06-07T07:49:08.484Z,37.03
2019-06-07T07:51:40.652Z,37.55
2019-06-07T07:54:12.874Z,37.44
2019-06-07T07:56:45.747Z,37.38
2019-06-07T07:59:18.799Z,36.79
2019-06-07T08:01:53.096Z,36.63
2019-06-07T08:05:12.353Z,36.60
2019-06-07T08:06:59.189Z,36.83
2019-06-07T08:09:31.267Z,36.90
2019-06-07T08:12:03.428Z,37.12
2019-06-07T08:14:35.726Z,37.87
2019-06-07T08:17:07.767Z,38.56
2019-06-07T08:19:39.744Z,38.80
2019-06-07T08:22:12.009Z,38.00
2019-06-07T08:24:44.399Z,38.39
2019-06-07T08:27:26.072Z,39.00
2019-06-07T08:30:10.189Z,39.42
2019-06-07T08:32:28.067Z,38.52
2019-06-07T08:35:06.057Z,37.57
2019-06-07T08:38:14.280Z,37.23
2019-06-07T08:40:08.040Z,36.49
2019-06-07T08:42:59.909Z,36.60
2019-06-07T08:45:14.532Z,36.27
2019-06-07T08:47:46.813Z,36.76
2019-06-07T08:50:20.570Z,37.00
2019-06-07T08:52:56.325Z,37.05
2019-06-07T08:55:26.285Z,37.37
2019-06-07T08:58:04.193Z,38.43
2019-06-07T09:00:48.111Z,38.79
2019-06-07T09:03:07.420Z,39.24
2019-06-07T09:05:39.586Z,39.35
2019-06-07T09:08:29.207Z,39.87
2019-06-07T09:10:45.351Z,39.29
2019-06-07T09:13:17.421Z,39.71
2019-06-07T09:15:49.276Z,40.10
2019-06-07T09:18:40.856Z,40.28
2019-06-07T09:20:55.641Z,40.96
2019-06-07T09:23:28.488Z,41.06
2019-06-07T09:26:15.340Z,41.46
2019-06-07T09:28:34.644Z,41.53
2019-06-07T09:31:10.391Z,41.93
2019-06-07T09:33:40.412Z,42.74
2019-06-07T09:36:13.344Z,42.42
2019-06-07T09:38:45.682Z,42.16
2019-06-07T09:41:17.851Z,42.91
2019-06-07T09:44:21.392Z,42.70
2019-06-07T09:46:24.044Z,42.31
2019-06-07T09:49:26.338Z,41.70
2019-06-07T09:51:29.405Z,41.49
2019-06-07T09:54:06.874Z,41.25
2019-06-07T09:56:35.183Z,39.83
2019-06-07T09:59:12.307Z,39.41
2019-06-07T10:01:40.550Z,39.06
2019-06-07T10:04:28.550Z,39.23
2019-06-07T10:06:48.425Z,39.78
2019-06-07T10:11:58.089Z,40.11
2019-06-07T10:14:30.423Z,40.33
2019-06-07T10:17:03.291Z,40.69
2019-06-07T10:19:35.588Z,40.16
2019-06-07T10:22:07.888Z,39.74
2019-06-07T10:24:39.837Z,40.32
2019-06-07T10:27:11.592Z,40.96
2019-06-07T10:29:43.860Z,40.92
2019-06-07T10:32:15.927Z,41.33
2019-06-07T10:34:47.796Z,41.60
2019-06-07T10:37:19.769Z,41.47
2019-06-07T10:39:51.933Z,41.66
2019-06-07T10:42:24.623Z,41.62
2019-06-07T10:44:57.197Z,41.37
2019-06-07T10:47:28.958Z,41.44
2019-06-07T10:50:03.785Z,41.06
2019-06-07T10:52:36.730Z,39.90
2019-06-07T10:55:08.679Z,38.39
2019-06-07T10:57:42.455Z,37.82
2019-06-07T11:00:14.519Z,36.92
2019-06-07T11:02:46.387Z,37.33
2019-06-07T11:05:19.292Z,37.79
2019-06-07T11:07:51.715Z,36.88
2019-06-07T11:10:23.721Z,36.40
2019-06-07T11:12:55.994Z,35.84
2019-06-07T11:15:28.171Z,35.67
2019-06-07T11:18:00.448Z,34.86
2019-06-07T11:20:32.403Z,35.20
2019-06-07T11:23:04.270Z,35.10
2019-06-07T11:25:36.233Z,35.50
2019-06-07T11:28:08.609Z,36.32
2019-06-07T11:30:40.467Z,36.08
2019-06-07T11:33:14.830Z,36.33
2019-06-07T11:35:46.853Z,36.87
2019-06-07T11:38:20.044Z,37.01
2019-06-07T11:40:53.979Z,36.83
2019-06-07T11:43:26.734Z,36.33
2019-06-07T11:45:58.902Z,35.42
2019-06-07T11:48:31.640Z,34.92
2019-06-07T11:51:06.549Z,34.76
2019-06-07T11:53:38.482Z,34.76
2019-06-07T11:56:11.853Z,35.48
2019-06-07T11:58:43.830Z,35.36
2019-06-07T12:01:17.136Z,34.53
2019-06-07T12:03:49.601Z,33.97
2019-06-07T12:06:21.775Z,33.55
2019-06-07T12:08:54.506Z,33.72
2019-06-07T12:11:26.523Z,33.83
2019-06-07T12:13:58.798Z,32.51
2019-06-07T12:16:30.762Z,33.20
2019-06-07T12:19:03.491Z,33.03
2019-06-07T12:21:35.809Z,32.93
2019-06-07T12:24:07.619Z,31.78
2019-06-07T12:26:39.853Z,30.90
2019-06-07T12:29:12.786Z,30.48
2019-06-07T12:31:44.703Z,30.04
2019-06-07T12:34:17.594Z,28.86
2019-06-07T12:36:49.757Z,28.19
2019-06-07T12:39:22.263Z,27.89
2019-06-07T12:41:54.613Z,26.75
2019-06-07T12:44:26.943Z,28.12
2019-06-07T12:46:59.379Z,28.23
2019-06-07T12:49:31.635Z,28.92
2019-06-07T12:52:03.489Z,29.13
2019-06-07T12:54:35.464Z,30.22
2019-06-07T12:57:07.741Z,30.55
2019-06-07T12:59:40.110Z,30.03
2019-06-07T13:02:12.379Z,29.65
2019-06-07T13:04:44.551Z,29.54
2019-06-07T13:07:21.966Z,28.82
2019-06-07T13:09:54.123Z,28.34
2019-06-07T13:12:26.391Z,28.73
2019-06-07T13:14:58.671Z,29.65
2019-06-07T13:17:30.839Z,31.21
2019-06-07T13:20:02.638Z,30.56
2019-06-07T13:22:35.004Z,31.94
2019-06-07T13:25:06.931Z,33.19
2019-06-07T13:27:38.900Z,33.07
2019-06-07T13:30:12.298Z,31.26
2019-06-07T13:32:44.261Z,29.94
2019-06-07T13:35:18.169Z,29.16
2019-06-07T13:37:51.174Z,29.99
2019-06-07T13:40:25.123Z,30.45
2019-06-07T13:42:57.665Z,30.89
2019-06-07T13:45:29.832Z,31.42
2019-06-07T13:48:02.311Z,31.52
2019-06-07T13:50:34.394Z,32.69
2019-06-07T13:53:06.760Z,33.33
2019-06-07T13:55:39.131Z,34.09
2019-06-07T13:58:10.993Z,34.45
2019-06-07T14:00:44.499Z,34.63
2019-06-07T14:03:20.308Z,34.86
2019-06-07T14:05:50.191Z,35.30
2019-06-07T14:08:23.378Z,34.78
2019-06-07T14:10:55.566Z,34.57
2019-06-07T14:13:28.156Z,34.29
2019-06-07T14:16:00.378Z,34.17
2019-06-07T14:18:32.445Z,33.43
2019-06-07T14:21:04.817Z,30.94
2019-06-07T14:23:48.367Z,29.68
2019-06-07T14:26:10.180Z,27.86
2019-06-07T14:28:42.252Z,26.71
2019-06-07T14:31:14.219Z,25.96
2019-06-07T14:33:47.115Z,25.88
2019-06-07T14:36:20.913Z,33.53
2019-06-07T14:38:53.129Z,43.67
2019-06-07T14:41:25.269Z,48.38
2019-06-07T14:43:59.520Z,55.01
2019-06-07T14:46:32.263Z,60.59
2019-06-07T14:49:05.146Z,60.77
2019-06-07T14:51:37.322Z,64.05
2019-06-07T14:54:09.487Z,66.81
2019-06-07T14:56:41.552Z,71.71
2019-06-07T14:59:15.585Z,67.67
2019-06-07T15:01:48.685Z,65.95
2019-06-07T15:04:26.540Z,66.55
2019-06-07T15:07:00.265Z,67.61
2019-06-07T15:09:33.068Z,71.29
2019-06-07T15:12:05.212Z,63.50
2019-06-07T15:14:37.615Z,67.49
2019-06-07T15:17:09.732Z,63.27
2019-06-07T15:19:41.714Z,67.26
2019-06-07T15:22:13.475Z,63.26
2019-06-07T15:24:45.652Z,60.75
2019-06-07T15:27:18.038Z,62.14
2019-06-07T15:29:49.988Z,60.19
2019-06-07T15:32:22.358Z,57.08
2019-06-07T15:34:54.550Z,53.87
2019-06-07T15:37:26.489Z,51.69
2019-06-07T15:39:58.660Z,48.95
2019-06-07T15:42:42.948Z,47.32
2019-06-07T15:45:07.333Z,46.56
2019-06-07T15:47:40.617Z,43.03
2019-06-07T15:50:12.868Z,38.04
2019-06-07T15:52:45.290Z,40.55
2019-06-07T15:55:18.542Z,38.30
2019-06-07T15:57:51.797Z,37.42
2019-06-07T16:00:24.807Z,38.11
2019-06-07T16:02:57.560Z,38.63
2019-06-07T16:05:31.869Z,39.81
2019-06-07T16:08:04.636Z,39.77
2019-06-07T16:10:38.936Z,42.88
2019-06-07T16:13:12.793Z,47.51
2019-06-07T16:15:45.047Z,49.91
2019-06-07T16:18:17.355Z,52.30
2019-06-07T16:20:49.211Z,53.83
2019-06-07T16:23:21.799Z,54.06
2019-06-07T16:25:53.750Z,52.31
2019-06-07T16:28:25.912Z,52.24
2019-06-07T16:30:58.087Z,52.76
2019-06-07T16:33:30.788Z,55.44
2019-06-07T16:36:05.076Z,58.43
2019-06-07T16:38:40.167Z,60.88
2019-06-07T16:41:15.783Z,62.51
2019-06-07T16:43:52.892Z,63.51
2019-06-07T16:46:29.971Z,64.95
2019-06-07T16:49:05.749Z,66.04
2019-06-07T16:51:41.313Z,64.51
2019-06-07T16:54:15.085Z,64.14
2019-06-07T16:56:51.222Z,63.43
2019-06-07T16:59:24.018Z,62.89
2019-06-07T17:01:56.846Z,63.11
2019-06-07T17:04:28.803Z,63.62
2019-06-07T17:07:00.976Z,65.98
2019-06-07T17:09:33.961Z,67.06
2019-06-07T17:12:06.339Z,69.14
2019-06-07T17:14:38.427Z,70.49
2019-06-07T17:17:10.743Z,71.44
2019-06-07T17:19:42.897Z,72.24
2019-06-07T17:22:15.308Z,71.87
2019-06-07T17:24:47.655Z,69.62
2019-06-07T17:27:19.755Z,72.99
2019-06-07T17:29:52.012Z,74.46
2019-06-07T17:32:24.386Z,74.52
2019-06-07T17:34:56.558Z,74.24
2019-06-07T17:37:30.219Z,74.73
2019-06-07T17:40:02.413Z,73.87
2019-06-07T17:42:35.107Z,74.42
2019-06-07T17:45:08.997Z,75.59
2019-06-07T17:47:41.806Z,76.40
2019-06-07T17:50:14.372Z,75.11
2019-06-07T17:52:47.941Z,74.95
2019-06-07T17:55:20.136Z,74.64
2019-06-07T17:57:52.693Z,74.46
2019-06-07T18:00:28.797Z,74.03
2019-06-07T18:03:00.330Z,73.83
2019-06-07T18:05:32.390Z,73.67
2019-06-07T18:08:07.220Z,72.80
2019-06-07T18:10:41.129Z,72.88
2019-06-07T18:13:12.905Z,72.56
2019-06-07T18:15:51.644Z,72.52
2019-06-07T18:18:20.999Z,74.55
2019-06-07T18:20:55.653Z,74.42
2019-06-07T18:23:27.186Z,74.84
2019-06-07T18:26:00.676Z,73.34
2019-06-07T18:28:35.036Z,72.24
2019-06-07T18:31:06.870Z,72.92
2019-06-07T18:33:39.604Z,73.27
2019-06-07T18:36:11.920Z,72.73
2019-06-07T18:38:44.190Z,73.01
2019-06-07T18:41:16.458Z,72.16
2019-06-07T18:43:49.170Z,70.90
2019-06-07T18:46:21.312Z,70.85
2019-06-07T18:48:54.817Z,69.13
2019-06-07T18:51:28.829Z,68.17
2019-06-07T18:54:03.261Z,69.72
2019-06-07T18:56:39.206Z,69.93
2019-06-07T18:59:14.725Z,70.17
2019-06-07T19:01:49.989Z,68.92
2019-06-07T19:04:23.781Z,68.64
2019-06-07T19:06:56.410Z,67.94
2019-06-07T19:09:28.557Z,69.15
2019-06-07T19:12:00.683Z,70.56
2019-06-07T19:14:37.085Z,70.55
2019-06-07T19:17:07.074Z,69.98
2019-06-07T19:19:39.292Z,69.93
2019-06-07T19:22:11.816Z,68.45
2019-06-07T19:24:45.083Z,69.35
2019-06-07T19:27:17.279Z,68.87
2019-06-07T19:29:50.783Z,69.42
2019-06-07T19:32:23.199Z,68.58
2019-06-07T19:34:55.322Z,68.48
2019-06-07T19:37:27.826Z,71.33
2019-06-07T19:40:00.274Z,70.28
2019-06-07T19:42:32.680Z,69.89
2019-06-07T19:45:28.843Z,72.05
2019-06-07T19:47:40.345Z,71.78
2019-06-07T19:50:12.506Z,72.61
2019-06-07T19:52:44.469Z,72.84
2019-06-07T19:55:16.963Z,71.57
2019-06-07T19:57:50.187Z,70.71
2019-06-07T20:00:22.201Z,72.17
2019-06-07T20:02:55.741Z,72.47
2019-06-07T20:05:27.665Z,72.70
2019-06-07T20:08:00.604Z,72.26
2019-06-07T20:10:32.710Z,71.82
2019-06-07T20:13:05.350Z,71.31
2019-06-07T20:15:37.469Z,71.46
2019-06-07T20:18:09.956Z,72.06
2019-06-07T20:20:42.129Z,72.38
2019-06-07T20:23:14.563Z,72.19
2019-06-07T20:25:46.570Z,72.57
2019-06-07T20:28:18.756Z,71.93
2019-06-07T20:30:52.284Z,71.51
2019-06-07T20:33:24.226Z,70.32
2019-06-07T20:35:56.672Z,70.26
2019-06-07T20:38:28.669Z,69.00
2019-06-07T20:41:01.153Z,70.57
2019-06-07T20:43:34.708Z,70.41
2019-06-07T20:46:08.180Z,68.90
2019-06-07T20:48:40.305Z,68.46
2019-06-07T20:51:12.165Z,68.57
2019-06-07T20:53:44.536Z,68.69
2019-06-07T20:56:17.114Z,69.14
2019-06-07T20:58:49.489Z,69.33
2019-06-07T21:01:21.864Z,69.67
2019-06-07T21:03:54.354Z,69.75
2019-06-07T21:06:26.310Z,70.65
2019-06-07T21:08:59.340Z,71.67
2019-06-07T21:11:31.368Z,72.37
2019-06-07T21:14:06.135Z,72.22
2019-06-07T21:16:38.470Z,72.43
2019-06-07T21:19:14.414Z,72.35
2019-06-07T21:21:48.880Z,72.14
2019-06-07T21:24:22.040Z,71.84
2019-06-07T21:26:57.224Z,71.70
2019-06-07T21:29:31.396Z,71.08
2019-06-07T21:32:03.806Z,70.38
2019-06-07T21:34:36.025Z,69.86
2019-06-07T21:37:09.996Z,68.97
2019-06-07T21:39:42.337Z,69.01
2019-06-07T21:42:14.268Z,69.07
2019-06-07T21:44:46.634Z,69.02
2019-06-07T21:47:19.156Z,68.95
2019-06-07T21:49:51.235Z,68.93
2019-06-07T21:52:26.449Z,68.91
2019-06-07T21:54:58.888Z,68.72
2019-06-07T21:57:31.177Z,68.95
2019-06-07T22:00:11.488Z,68.80
2019-06-07T22:02:47.683Z,69.68
2019-06-07T22:05:19.734Z,70.46
2019-06-07T22:07:51.905Z,70.86
2019-06-07T22:10:24.171Z,71.08
2019-06-07T22:12:55.930Z,71.00
2019-06-07T22:15:34.050Z,70.66
2019-06-07T22:18:01.598Z,70.54
2019-06-07T22:20:33.972Z,69.44
2019-06-07T22:23:06.537Z,69.36
2019-06-07T22:25:38.416Z,70.37
2019-06-07T22:28:10.726Z,71.65
2019-06-07T22:30:42.762Z,71.95
2019-06-07T22:33:15.130Z,72.19
2019-06-07T22:35:47.110Z,72.21
2019-06-07T22:38:19.180Z,72.18
2019-06-07T22:40:51.560Z,72.63
2019-06-07T22:43:24.138Z,72.50
2019-06-07T22:45:55.994Z,71.98
2019-06-07T22:48:28.265Z,72.25
2019-06-07T22:51:02.282Z,70.99
2019-06-07T22:53:36.300Z,71.02
2019-06-07T22:56:10.104Z,70.48
2019-06-07T22:58:41.873Z,70.35
2019-06-07T23:01:14.564Z,69.84
2019-06-07T23:03:47.444Z,69.53
2019-06-07T23:06:19.515Z,69.77
2019-06-07T23:08:51.894Z,69.55
2019-06-07T23:11:23.873Z,69.26
2019-06-07T23:13:56.030Z,68.67
2019-06-07T23:16:28.105Z,69.08
2019-06-07T23:19:00.080Z,70.02
2019-06-07T23:21:32.140Z,69.36
2019-06-07T23:24:04.303Z,69.92
2019-06-07T23:26:36.069Z,70.30
2019-06-07T23:29:08.132Z,70.54
2019-06-07T23:31:40.090Z,70.70
2019-06-07T23:34:13.010Z,70.89
2019-06-07T23:36:44.961Z,70.98
2019-06-07T23:39:17.224Z,70.85
2019-06-07T23:41:49.092Z,70.52
2019-06-07T23:44:21.485Z,70.29
2019-06-07T23:46:53.442Z,69.94
2019-06-07T23:49:25.818Z,69.88
2019-06-07T23:51:58.293Z,70.30
2019-06-07T23:54:30.457Z,71.06
2019-06-07T23:57:02.733Z,71.14
2019-06-07T23:59:35.107Z,71.54
